Ap Boi Loi, Viet Nam

88°F / 31°C
Partly Cloudy
Heat Index: 93°F / 34°C
Humidity: 55%
Dew Point: 70°F / 21°C
Wind: SE at 9 mph / 15 km/h
Pressure: 29.83 in / 1010 hPa (Steady)
Visibility: 6.2 miles / 10.0 kilometers
Clouds: Scattered Clouds (SCT) : 1500 ft / 457 m
(FEW) : 1700 ft / 518 m
Yesterday's Maximum: 90°F / 32°C
Yesterday's Minimum: 72°F / 22°C approx.
Yesterday's Cooling Degree Days: 16 approx.
UV: 1 out of 16
Sunrise:6:17 AM +07
Sunset:6:08 PM +07
Moon Rise:4:53 PM +07
Moon Set:4:49 AM +07
Moon Phase Waxing Gibbous
NOAA Weather Radio
No local feed.
METAR VVCT 181000Z 14008KT 9999 SCT015 FEW017TCU 31/21 Q1010 NOSIG TCU/NW
As of: 5:00 PM +07 on February 18, 2019
Observed at: Can Tho Airfield, Viet Nam

View Station's History

Local Satellite

Current Satellite Forecast
Region Default Local
No Yes

View Full Screen WunderMap

Forecast

Current Satellite Forecast
Sunday
. High: 89° F. / 31° C.

. High: 90° F. / 32° C.

Features

Weather Apps

WunderRadio

Weather Underground Apps
Check out our wide variety of mobile and setup applications.

Weather Underground Applications

Top of Page

© Copyright 2019
The Weather Company, LLC